sensor_id;sensor_type;location;lat;lon;timestamp;temperature;humidity
48376;DHT22;34178;50.904;11.560;2024-03-23T00:54:13;5.90;99.90
48376;DHT22;34178;50.904;11.560;2024-03-23T00:56:39;6.00;99.90
48376;DHT22;34178;50.904;11.560;2024-03-23T00:59:04;6.00;99.90
48376;DHT22;34178;50.904;11.560;2024-03-23T01:01:30;5.80;99.90
48376;DHT22;34178;50.904;11.560;2024-03-23T01:03:55;5.60;99.90
48376;DHT22;34178;50.904;11.560;2024-03-23T01:06:21;5.50;99.90
48376;DHT22;34178;50.904;11.560;2024-03-23T01:08:46;5.50;99.90
48376;DHT22;34178;50.904;11.560;2024-03-23T01:11:12;5.50;99.90
48376;DHT22;34178;50.904;11.560;2024-03-23T01:13:37;5.60;99.90
48376;DHT22;34178;50.904;11.560;2024-03-23T01:16:03;5.50;99.90
48376;DHT22;34178;50.904;11.560;2024-03-23T01:18:29;5.30;99.90
48376;DHT22;34178;50.904;11.560;2024-03-23T01:20:54;5.30;99.90
48376;DHT22;34178;50.904;11.560;2024-03-23T01:23:20;5.30;99.90
48376;DHT22;34178;50.904;11.560;2024-03-23T01:25:52;5.40;99.90
48376;DHT22;34178;50.904;11.560;2024-03-23T01:28:19;5.50;99.90
48376;DHT22;34178;50.904;11.560;2024-03-23T01:30:44;5.50;99.90
48376;DHT22;34178;50.904;11.560;2024-03-23T01:33:10;5.50;99.90
48376;DHT22;34178;50.904;11.560;2024-03-23T01:35:35;5.50;99.90
48376;DHT22;34178;50.904;11.560;2024-03-23T01:38:01;5.50;99.90
48376;DHT22;34178;50.904;11.560;2024-03-23T01:40:26;5.50;99.90
48376;DHT22;34178;50.904;11.560;2024-03-23T01:42:57;5.60;99.90
48376;DHT22;34178;50.904;11.560;2024-03-23T01:45:22;5.60;99.90
48376;DHT22;34178;50.904;11.560;2024-03-23T01:47:49;5.80;99.90
48376;DHT22;34178;50.904;11.560;2024-03-23T01:50:15;5.90;99.90
48376;DHT22;34178;50.904;11.560;2024-03-23T01:52:40;5.90;99.90
48376;DHT22;34178;50.904;11.560;2024-03-23T01:55:06;5.90;99.90
48376;DHT22;34178;50.904;11.560;2024-03-23T01:57:32;6.00;99.90
48376;DHT22;34178;50.904;11.560;2024-03-23T01:59:58;6.10;99.90
48376;DHT22;34178;50.904;11.560;2024-03-23T02:02:23;6.10;99.90
48376;DHT22;34178;50.904;11.560;2024-03-23T02:04:49;6.20;99.90
48376;DHT22;34178;50.904;11.560;2024-03-23T02:07:14;6.20;99.90
48376;DHT22;34178;50.904;11.560;2024-03-23T02:09:40;6.30;99.90
48376;DHT22;34178;50.904;11.560;2024-03-23T02:12:05;6.20;99.90
48376;DHT22;34178;50.904;11.560;2024-03-23T02:14:31;6.20;99.90
48376;DHT22;34178;50.904;11.560;2024-03-23T02:16:57;6.10;99.90
48376;DHT22;34178;50.904;11.560;2024-03-23T02:19:23;6.00;99.90
48376;DHT22;34178;50.904;11.560;2024-03-23T02:21:49;5.90;99.90
48376;DHT22;34178;50.904;11.560;2024-03-23T02:24:15;5.80;99.90
48376;DHT22;34178;50.904;11.560;2024-03-23T02:26:40;5.80;99.90
48376;DHT22;34178;50.904;11.560;2024-03-23T02:29:06;5.80;99.90
48376;DHT22;34178;50.904;11.560;2024-03-23T02:31:31;5.80;99.90
48376;DHT22;34178;50.904;11.560;2024-03-23T02:33:57;5.80;99.90
48376;DHT22;34178;50.904;11.560;2024-03-23T02:36:22;5.70;99.90
48376;DHT22;34178;50.904;11.560;2024-03-23T02:38:48;5.80;99.90
48376;DHT22;34178;50.904;11.560;2024-03-23T02:41:13;5.70;99.90
48376;DHT22;34178;50.904;11.560;2024-03-23T02:43:39;5.60;99.90
48376;DHT22;34178;50.904;11.560;2024-03-23T02:46:05;5.60;99.90
48376;DHT22;34178;50.904;11.560;2024-03-23T02:48:30;5.50;99.90
48376;DHT22;34178;50.904;11.560;2024-03-23T02:50:56;5.50;99.90
48376;DHT22;34178;50.904;11.560;2024-03-23T02:53:22;5.50;99.90
48376;DHT22;34178;50.904;11.560;2024-03-23T02:55:47;5.50;99.90
48376;DHT22;34178;50.904;11.560;2024-03-23T02:58:13;5.60;99.90
48376;DHT22;34178;50.904;11.560;2024-03-23T03:00:38;5.60;99.90
48376;DHT22;34178;50.904;11.560;2024-03-23T03:03:04;5.70;99.90
48376;DHT22;34178;50.904;11.560;2024-03-23T03:05:29;5.70;99.90
48376;DHT22;34178;50.904;11.560;2024-03-23T03:07:55;5.80;99.90
48376;DHT22;34178;50.904;11.560;2024-03-23T03:10:20;6.00;99.90
48376;DHT22;34178;50.904;11.560;2024-03-23T03:12:46;6.00;99.90
48376;DHT22;34178;50.904;11.560;2024-03-23T03:15:12;6.10;99.90
48376;DHT22;34178;50.904;11.560;2024-03-23T03:17:38;6.30;99.90
48376;DHT22;34178;50.904;11.560;2024-03-23T03:20:03;6.40;99.90
48376;DHT22;34178;50.904;11.560;2024-03-23T03:22:30;6.30;99.90
48376;DHT22;34178;50.904;11.560;2024-03-23T03:24:55;6.20;99.90
48376;DHT22;34178;50.904;11.560;2024-03-23T03:27:21;6.00;99.90
48376;DHT22;34178;50.904;11.560;2024-03-23T03:29:47;5.90;99.90
48376;DHT22;34178;50.904;11.560;2024-03-23T03:32:13;6.00;99.90
48376;DHT22;34178;50.904;11.560;2024-03-23T03:34:38;6.10;99.90
48376;DHT22;34178;50.904;11.560;2024-03-23T03:37:04;6.20;99.90
48376;DHT22;34178;50.904;11.560;2024-03-23T03:39:30;6.20;99.90
48376;DHT22;34178;50.904;11.560;2024-03-23T03:41:55;6.30;99.90
48376;DHT22;34178;50.904;11.560;2024-03-23T03:44:21;6.30;99.90
48376;DHT22;34178;50.904;11.560;2024-03-23T03:46:46;6.40;99.90
48376;DHT22;34178;50.904;11.560;2024-03-23T03:49:12;6.40;99.90
48376;DHT22;34178;50.904;11.560;2024-03-23T03:51:37;6.40;99.90
48376;DHT22;34178;50.904;11.560;2024-03-23T03:54:03;6.50;99.90
48376;DHT22;34178;50.904;11.560;2024-03-23T03:56:28;6.50;99.90
48376;DHT22;34178;50.904;11.560;2024-03-23T03:58:54;6.60;99.90
48376;DHT22;34178;50.904;11.560;2024-03-23T04:01:19;6.60;99.90
48376;DHT22;34178;50.904;11.560;2024-03-23T04:03:45;6.60;99.90
48376;DHT22;34178;50.904;11.560;2024-03-23T04:06:11;6.60;99.90
48376;DHT22;34178;50.904;11.560;2024-03-23T04:08:37;6.60;99.90
48376;DHT22;34178;50.904;11.560;2024-03-23T04:11:03;6.70;99.90
48376;DHT22;34178;50.904;11.560;2024-03-23T04:13:28;6.80;99.90
48376;DHT22;34178;50.904;11.560;2024-03-23T04:15:54;6.80;99.90
48376;DHT22;34178;50.904;11.560;2024-03-23T04:18:20;6.90;99.90
48376;DHT22;34178;50.904;11.560;2024-03-23T04:20:47;6.90;99.90
48376;DHT22;34178;50.904;11.560;2024-03-23T04:23:12;6.80;99.90
48376;DHT22;34178;50.904;11.560;2024-03-23T04:25:38;6.80;99.90
48376;DHT22;34178;50.904;11.560;2024-03-23T04:28:03;6.90;99.90
48376;DHT22;34178;50.904;11.560;2024-03-23T04:30:29;7.00;99.90
48376;DHT22;34178;50.904;11.560;2024-03-23T04:32:55;7.00;99.90
48376;DHT22;34178;50.904;11.560;2024-03-23T04:35:22;7.00;99.90
48376;DHT22;34178;50.904;11.560;2024-03-23T04:37:50;7.10;99.90
48376;DHT22;34178;50.904;11.560;2024-03-23T04:40:17;7.10;99.90
48376;DHT22;34178;50.904;11.560;2024-03-23T04:42:43;7.10;99.90
48376;DHT22;34178;50.904;11.560;2024-03-23T04:45:09;7.10;99.90
48376;DHT22;34178;50.904;11.560;2024-03-23T04:47:36;7.20;99.90
48376;DHT22;34178;50.904;11.560;2024-03-23T04:50:02;7.20;99.90
48376;DHT22;34178;50.904;11.560;2024-03-23T04:52:29;7.30;99.90
48376;DHT22;34178;50.904;11.560;2024-03-23T04:54:55;7.20;99.90
48376;DHT22;34178;50.904;11.560;2024-03-23T04:57:20;7.30;99.90
48376;DHT22;34178;50.904;11.560;2024-03-23T04:59:46;7.30;99.90
48376;DHT22;34178;50.904;11.560;2024-03-23T05:02:12;7.30;99.90
48376;DHT22;34178;50.904;11.560;2024-03-23T05:04:38;7.30;99.90
48376;DHT22;34178;50.904;11.560;2024-03-23T05:07:03;7.30;99.90
48376;DHT22;34178;50.904;11.560;2024-03-23T05:09:29;7.30;99.90
48376;DHT22;34178;50.904;11.560;2024-03-23T05:11:59;7.30;99.90
48376;DHT22;34178;50.904;11.560;2024-03-23T05:14:25;7.30;99.90
48376;DHT22;34178;50.904;11.560;2024-03-23T05:16:52;7.30;99.90
48376;DHT22;34178;50.904;11.560;2024-03-23T05:19:17;7.10;99.90
48376;DHT22;34178;50.904;11.560;2024-03-23T05:21:43;7.10;99.90
48376;DHT22;34178;50.904;11.560;2024-03-23T05:24:08;7.20;99.90
48376;DHT22;34178;50.904;11.560;2024-03-23T05:26:34;7.20;99.90
48376;DHT22;34178;50.904;11.560;2024-03-23T05:29:01;7.20;99.90
48376;DHT22;34178;50.904;11.560;2024-03-23T05:31:27;7.30;99.90
48376;DHT22;34178;50.904;11.560;2024-03-23T05:33:53;7.30;99.90
48376;DHT22;34178;50.904;11.560;2024-03-23T05:36:18;7.40;99.90
48376;DHT22;34178;50.904;11.560;2024-03-23T05:38:44;7.50;99.90
48376;DHT22;34178;50.904;11.560;2024-03-23T05:41:09;7.50;99.90
48376;DHT22;34178;50.904;11.560;2024-03-23T05:43:35;7.50;99.90
48376;DHT22;34178;50.904;11.560;2024-03-23T05:46:01;7.60;99.90
48376;DHT22;34178;50.904;11.560;2024-03-23T05:48:30;7.60;99.90
48376;DHT22;34178;50.904;11.560;2024-03-23T05:50:56;7.60;99.90
48376;DHT22;34178;50.904;11.560;2024-03-23T05:53:22;7.60;99.90
48376;DHT22;34178;50.904;11.560;2024-03-23T05:55:49;7.70;99.90
48376;DHT22;34178;50.904;11.560;2024-03-23T05:58:15;7.70;99.90
48376;DHT22;34178;50.904;11.560;2024-03-23T06:00:40;7.70;99.90
48376;DHT22;34178;50.904;11.560;2024-03-23T06:03:07;7.70;99.90
48376;DHT22;34178;50.904;11.560;2024-03-23T06:05:32;7.80;99.90
48376;DHT22;34178;50.904;11.560;2024-03-23T06:07:58;7.80;99.90
48376;DHT22;34178;50.904;11.560;2024-03-23T06:10:23;7.80;99.90
48376;DHT22;34178;50.904;11.560;2024-03-23T06:12:49;7.80;99.90
48376;DHT22;34178;50.904;11.560;2024-03-23T06:15:17;7.90;99.90
48376;DHT22;34178;50.904;11.560;2024-03-23T06:17:43;7.90;99.90
48376;DHT22;34178;50.904;11.560;2024-03-23T06:20:09;7.90;99.90
48376;DHT22;34178;50.904;11.560;2024-03-23T06:22:35;8.00;99.90
48376;DHT22;34178;50.904;11.560;2024-03-23T06:25:01;8.00;99.90
48376;DHT22;34178;50.904;11.560;2024-03-23T06:27:26;8.00;99.90
48376;DHT22;34178;50.904;11.560;2024-03-23T06:29:52;8.00;99.90
48376;DHT22;34178;50.904;11.560;2024-03-23T06:32:18;8.10;99.90
48376;DHT22;34178;50.904;11.560;2024-03-23T06:34:43;8.20;99.90
48376;DHT22;34178;50.904;11.560;2024-03-23T06:37:09;8.20;99.90
48376;DHT22;34178;50.904;11.560;2024-03-23T06:39:38;8.20;99.90
48376;DHT22;34178;50.904;11.560;2024-03-23T06:42:03;8.30;99.90
48376;DHT22;34178;50.904;11.560;2024-03-23T06:44:29;8.30;99.90
48376;DHT22;34178;50.904;11.560;2024-03-23T06:46:55;8.40;99.90
48376;DHT22;34178;50.904;11.560;2024-03-23T06:49:22;8.20;99.90
48376;DHT22;34178;50.904;11.560;2024-03-23T06:51:47;8.30;99.90
48376;DHT22;34178;50.904;11.560;2024-03-23T06:54:13;8.40;99.90
48376;DHT22;34178;50.904;11.560;2024-03-23T06:56:39;8.50;99.90
48376;DHT22;34178;50.904;11.560;2024-03-23T06:59:04;8.60;99.90
48376;DHT22;34178;50.904;11.560;2024-03-23T07:01:30;8.70;99.90
48376;DHT22;34178;50.904;11.560;2024-03-23T07:03:55;8.90;99.90
48376;DHT22;34178;50.904;11.560;2024-03-23T07:06:21;9.00;99.90
48376;DHT22;34178;50.904;11.560;2024-03-23T07:08:47;9.00;99.90
48376;DHT22;34178;50.904;11.560;2024-03-23T07:11:18;9.00;99.90
48376;DHT22;34178;50.904;11.560;2024-03-23T07:13:43;9.00;99.90
48376;DHT22;34178;50.904;11.560;2024-03-23T07:16:09;8.80;99.90
48376;DHT22;34178;50.904;11.560;2024-03-23T07:18:34;8.80;99.90
48376;DHT22;34178;50.904;11.560;2024-03-23T07:21:00;8.80;99.90
48376;DHT22;34178;50.904;11.560;2024-03-23T07:23:25;8.70;99.90
48376;DHT22;34178;50.904;11.560;2024-03-23T07:26:00;8.80;99.90
48376;DHT22;34178;50.904;11.560;2024-03-23T07:28:26;8.80;99.90
48376;DHT22;34178;50.904;11.560;2024-03-23T07:31:26;8.70;99.90
48376;DHT22;34178;50.904;11.560;2024-03-23T07:33:45;8.70;99.90
48376;DHT22;34178;50.904;11.560;2024-03-23T07:36:11;8.70;99.90
48376;DHT22;34178;50.904;11.560;2024-03-23T07:38:37;8.50;99.90
48376;DHT22;34178;50.904;11.560;2024-03-23T07:41:03;8.30;99.90
48376;DHT22;34178;50.904;11.560;2024-03-23T07:43:28;8.20;99.90
48376;DHT22;34178;50.904;11.560;2024-03-23T07:45:54;7.70;99.90
48376;DHT22;34178;50.904;11.560;2024-03-23T07:48:22;7.30;99.90
48376;DHT22;34178;50.904;11.560;2024-03-23T07:51:01;7.30;99.90
48376;DHT22;34178;50.904;11.560;2024-03-23T07:53:27;6.90;99.90
48376;DHT22;34178;50.904;11.560;2024-03-23T07:56:01;6.80;99.90
48376;DHT22;34178;50.904;11.560;2024-03-23T07:58:26;6.80;99.90
48376;DHT22;34178;50.904;11.560;2024-03-23T08:00:55;6.70;99.90
48376;DHT22;34178;50.904;11.560;2024-03-23T08:03:21;6.40;99.90
48376;DHT22;34178;50.904;11.560;2024-03-23T08:05:47;6.20;99.90
48376;DHT22;34178;50.904;11.560;2024-03-23T08:08:12;5.90;99.90
48376;DHT22;34178;50.904;11.560;2024-03-23T08:10:51;5.90;99.90
48376;DHT22;34178;50.904;11.560;2024-03-23T08:13:17;5.90;99.90
48376;DHT22;34178;50.904;11.560;2024-03-23T08:15:43;6.10;99.90
48376;DHT22;34178;50.904;11.560;2024-03-23T08:18:09;6.10;99.90
48376;DHT22;34178;50.904;11.560;2024-03-23T08:20:34;6.10;99.90
48376;DHT22;34178;50.904;11.560;2024-03-23T08:23:00;6.20;99.90
48376;DHT22;34178;50.904;11.560;2024-03-23T08:25:26;6.20;99.90
48376;DHT22;34178;50.904;11.560;2024-03-23T08:27:52;6.20;99.90
48376;DHT22;34178;50.904;11.560;2024-03-23T08:30:17;6.50;99.90
48376;DHT22;34178;50.904;11.560;2024-03-23T08:32:43;6.70;99.90
48376;DHT22;34178;50.904;11.560;2024-03-23T08:35:09;6.70;99.90
48376;DHT22;34178;50.904;11.560;2024-03-23T08:37:35;6.70;99.90
48376;DHT22;34178;50.904;11.560;2024-03-23T08:40:00;6.50;99.90
48376;DHT22;34178;50.904;11.560;2024-03-23T08:42:26;6.50;99.90
48376;DHT22;34178;50.904;11.560;2024-03-23T08:44:51;6.30;99.90
48376;DHT22;34178;50.904;11.560;2024-03-23T08:47:17;6.40;99.90
48376;DHT22;34178;50.904;11.560;2024-03-23T08:49:44;6.50;99.90
48376;DHT22;34178;50.904;11.560;2024-03-23T08:52:09;6.50;99.90
48376;DHT22;34178;50.904;11.560;2024-03-23T08:54:35;6.20;99.90
48376;DHT22;34178;50.904;11.560;2024-03-23T08:57:00;6.00;99.90
48376;DHT22;34178;50.904;11.560;2024-03-23T08:59:26;5.80;99.90
48376;DHT22;34178;50.904;11.560;2024-03-23T09:01:52;5.90;99.90
48376;DHT22;34178;50.904;11.560;2024-03-23T09:04:17;5.90;99.90
48376;DHT22;34178;50.904;11.560;2024-03-23T09:06:43;6.00;99.90
48376;DHT22;34178;50.904;11.560;2024-03-23T09:09:08;5.80;99.90
48376;DHT22;34178;50.904;11.560;2024-03-23T09:11:34;5.70;99.90
48376;DHT22;34178;50.904;11.560;2024-03-23T09:13:59;5.60;99.90
48376;DHT22;34178;50.904;11.560;2024-03-23T09:16:25;5.50;99.90
48376;DHT22;34178;50.904;11.560;2024-03-23T09:18:51;5.60;99.90
48376;DHT22;34178;50.904;11.560;2024-03-23T09:21:17;5.50;99.90
48376;DHT22;34178;50.904;11.560;2024-03-23T09:23:45;5.60;99.90
48376;DHT22;34178;50.904;11.560;2024-03-23T09:26:11;5.80;99.90
48376;DHT22;34178;50.904;11.560;2024-03-23T09:28:36;5.80;99.90
48376;DHT22;34178;50.904;11.560;2024-03-23T09:31:03;5.80;99.90
48376;DHT22;34178;50.904;11.560;2024-03-23T09:33:28;5.90;99.90
48376;DHT22;34178;50.904;11.560;2024-03-23T09:35:54;6.00;99.90
48376;DHT22;34178;50.904;11.560;2024-03-23T09:38:21;6.10;99.90
48376;DHT22;34178;50.904;11.560;2024-03-23T09:40:48;6.20;99.90
48376;DHT22;34178;50.904;11.560;2024-03-23T09:43:14;6.10;99.90
48376;DHT22;34178;50.904;11.560;2024-03-23T09:45:40;6.20;99.90
48376;DHT22;34178;50.904;11.560;2024-03-23T09:48:09;6.10;99.90
48376;DHT22;34178;50.904;11.560;2024-03-23T09:50:38;6.50;99.90
48376;DHT22;34178;50.904;11.560;2024-03-23T09:53:06;6.70;99.90
48376;DHT22;34178;50.904;11.560;2024-03-23T09:55:32;6.80;99.90
48376;DHT22;34178;50.904;11.560;2024-03-23T09:57:57;7.20;99.90
48376;DHT22;34178;50.904;11.560;2024-03-23T10:00:23;7.70;99.90
48376;DHT22;34178;50.904;11.560;2024-03-23T10:02:48;7.80;99.90
48376;DHT22;34178;50.904;11.560;2024-03-23T10:05:19;7.30;99.90
48376;DHT22;34178;50.904;11.560;2024-03-23T10:07:45;7.30;99.90
48376;DHT22;34178;50.904;11.560;2024-03-23T10:10:11;7.20;99.90
48376;DHT22;34178;50.904;11.560;2024-03-23T10:12:40;7.20;99.90
48376;DHT22;34178;50.904;11.560;2024-03-23T10:15:14;7.30;99.90
48376;DHT22;34178;50.904;11.560;2024-03-23T10:17:41;7.30;99.90
48376;DHT22;34178;50.904;11.560;2024-03-23T10:20:06;7.20;99.90
48376;DHT22;34178;50.904;11.560;2024-03-23T10:22:36;7.00;99.90
48376;DHT22;34178;50.904;11.560;2024-03-23T10:25:08;7.00;99.90
48376;DHT22;34178;50.904;11.560;2024-03-23T10:27:34;6.90;99.90
48376;DHT22;34178;50.904;11.560;2024-03-23T10:32:35;7.70;99.90
48376;DHT22;34178;50.904;11.560;2024-03-23T10:35:13;8.00;99.90
48376;DHT22;34178;50.904;11.560;2024-03-23T10:37:39;8.30;99.90
48376;DHT22;34178;50.904;11.560;2024-03-23T10:40:05;7.80;99.90
48376;DHT22;34178;50.904;11.560;2024-03-23T10:42:30;7.90;99.90
48376;DHT22;34178;50.904;11.560;2024-03-23T10:44:57;7.80;99.90
48376;DHT22;34178;50.904;11.560;2024-03-23T10:47:23;8.00;99.90
48376;DHT22;34178;50.904;11.560;2024-03-23T10:49:49;7.90;99.90
48376;DHT22;34178;50.904;11.560;2024-03-23T10:52:14;8.20;99.90
48376;DHT22;34178;50.904;11.560;2024-03-23T10:54:40;8.60;99.90
48376;DHT22;34178;50.904;11.560;2024-03-23T10:57:08;8.70;99.90
48376;DHT22;34178;50.904;11.560;2024-03-23T10:59:35;9.10;99.90
48376;DHT22;34178;50.904;11.560;2024-03-23T11:02:02;8.90;99.90
48376;DHT22;34178;50.904;11.560;2024-03-23T11:04:32;9.40;99.90
48376;DHT22;34178;50.904;11.560;2024-03-23T11:06:58;9.20;99.90
48376;DHT22;34178;50.904;11.560;2024-03-23T11:09:40;9.00;99.90
48376;DHT22;34178;50.904;11.560;2024-03-23T11:14:51;8.60;99.90
48376;DHT22;34178;50.904;11.560;2024-03-23T11:17:20;9.00;99.90
48376;DHT22;34178;50.904;11.560;2024-03-23T11:19:53;9.20;99.90
48376;DHT22;34178;50.904;11.560;2024-03-23T11:25:24;9.60;99.90
48376;DHT22;34178;50.904;11.560;2024-03-23T11:27:51;9.70;99.90
48376;DHT22;34178;50.904;11.560;2024-03-23T11:32:43;10.70;99.90
48376;DHT22;34178;50.904;11.560;2024-03-23T11:35:09;10.00;99.90
48376;DHT22;34178;50.904;11.560;2024-03-23T11:37:37;9.80;99.90
48376;DHT22;34178;50.904;11.560;2024-03-23T11:40:18;9.50;99.90
48376;DHT22;34178;50.904;11.560;2024-03-23T11:42:44;9.70;99.90
48376;DHT22;34178;50.904;11.560;2024-03-23T11:45:10;9.90;99.90
48376;DHT22;34178;50.904;11.560;2024-03-23T11:47:35;9.70;99.90
48376;DHT22;34178;50.904;11.560;2024-03-23T11:50:01;9.30;99.90
48376;DHT22;34178;50.904;11.560;2024-03-23T11:52:26;9.10;99.90
48376;DHT22;34178;50.904;11.560;2024-03-23T11:55:01;9.30;99.90
48376;DHT22;34178;50.904;11.560;2024-03-23T11:57:28;9.20;99.90
48376;DHT22;34178;50.904;11.560;2024-03-23T11:59:53;9.60;99.90
48376;DHT22;34178;50.904;11.560;2024-03-23T12:02:19;9.60;99.90
48376;DHT22;34178;50.904;11.560;2024-03-23T12:04:44;9.50;99.90
48376;DHT22;34178;50.904;11.560;2024-03-23T12:07:11;9.40;99.90
48376;DHT22;34178;50.904;11.560;2024-03-23T12:09:36;9.50;99.90
48376;DHT22;34178;50.904;11.560;2024-03-23T12:12:08;9.40;99.90
48376;DHT22;34178;50.904;11.560;2024-03-23T12:14:34;9.20;99.90
48376;DHT22;34178;50.904;11.560;2024-03-23T12:17:09;9.00;99.90
48376;DHT22;34178;50.904;11.560;2024-03-23T12:19:35;8.80;99.90
48376;DHT22;34178;50.904;11.560;2024-03-23T12:22:00;8.60;99.90
48376;DHT22;34178;50.904;11.560;2024-03-23T12:24:26;8.50;99.90
48376;DHT22;34178;50.904;11.560;2024-03-23T12:26:52;8.70;99.90
48376;DHT22;34178;50.904;11.560;2024-03-23T12:29:17;9.20;99.90
48376;DHT22;34178;50.904;11.560;2024-03-23T12:31:43;9.20;99.90
48376;DHT22;34178;50.904;11.560;2024-03-23T12:34:09;9.30;99.90
48376;DHT22;34178;50.904;11.560;2024-03-23T12:36:34;9.10;99.90
48376;DHT22;34178;50.904;11.560;2024-03-23T12:39:00;8.80;99.90
48376;DHT22;34178;50.904;11.560;2024-03-23T12:41:26;8.90;99.90
48376;DHT22;34178;50.904;11.560;2024-03-23T12:43:51;9.70;99.90
48376;DHT22;34178;50.904;11.560;2024-03-23T12:46:17;11.60;96.80
48376;DHT22;34178;50.904;11.560;2024-03-23T12:48:44;11.20;97.30
48376;DHT22;34178;50.904;11.560;2024-03-23T12:51:09;11.70;96.70
48376;DHT22;34178;50.904;11.560;2024-03-23T12:53:35;14.00;94.90
48376;DHT22;34178;50.904;11.560;2024-03-23T12:56:00;13.50;93.70
48376;DHT22;34178;50.904;11.560;2024-03-23T12:58:27;14.20;92.00
48376;DHT22;34178;50.904;11.560;2024-03-23T13:00:52;15.40;90.10
48376;DHT22;34178;50.904;11.560;2024-03-23T13:03:18;12.70;91.80
48376;DHT22;34178;50.904;11.560;2024-03-23T13:05:43;17.30;89.50
48376;DHT22;34178;50.904;11.560;2024-03-23T13:08:09;16.80;79.40
48376;DHT22;34178;50.904;11.560;2024-03-23T13:10:34;17.40;77.50
48376;DHT22;34178;50.904;11.560;2024-03-23T13:13:00;14.20;84.00
48376;DHT22;34178;50.904;11.560;2024-03-23T13:15:25;14.60;86.20
48376;DHT22;34178;50.904;11.560;2024-03-23T13:17:51;14.50;82.70
48376;DHT22;34178;50.904;11.560;2024-03-23T13:20:17;13.40;86.70
48376;DHT22;34178;50.904;11.560;2024-03-23T13:22:43;16.00;82.50
48376;DHT22;34178;50.904;11.560;2024-03-23T13:25:08;15.10;82.70
48376;DHT22;34178;50.904;11.560;2024-03-23T13:27:34;17.50;78.30
48376;DHT22;34178;50.904;11.560;2024-03-23T13:29:59;13.90;83.40
48376;DHT22;34178;50.904;11.560;2024-03-23T13:32:25;17.00;77.30
48376;DHT22;34178;50.904;11.560;2024-03-23T13:34:50;18.40;72.00
48376;DHT22;34178;50.904;11.560;2024-03-23T13:37:16;18.20;70.70
48376;DHT22;34178;50.904;11.560;2024-03-23T13:39:42;15.40;76.70
48376;DHT22;34178;50.904;11.560;2024-03-23T13:42:07;14.10;79.00
48376;DHT22;34178;50.904;11.560;2024-03-23T13:44:34;15.80;78.60
48376;DHT22;34178;50.904;11.560;2024-03-23T13:47:00;21.40;68.70
48376;DHT22;34178;50.904;11.560;2024-03-23T13:49:26;22.60;65.30
48376;DHT22;34178;50.904;11.560;2024-03-23T13:51:52;18.40;68.00
48376;DHT22;34178;50.904;11.560;2024-03-23T13:54:18;17.50;69.80
48376;DHT22;34178;50.904;11.560;2024-03-23T13:56:43;17.00;70.60
48376;DHT22;34178;50.904;11.560;2024-03-23T13:59:09;15.30;70.00
48376;DHT22;34178;50.904;11.560;2024-03-23T14:01:35;13.70;73.80
48376;DHT22;34178;50.904;11.560;2024-03-23T14:04:01;12.60;74.20
48376;DHT22;34178;50.904;11.560;2024-03-23T14:06:26;13.50;74.50
48376;DHT22;34178;50.904;11.560;2024-03-23T14:08:52;14.90;73.50
48376;DHT22;34178;50.904;11.560;2024-03-23T14:11:18;18.10;71.20
48376;DHT22;34178;50.904;11.560;2024-03-23T14:13:43;18.30;66.60
48376;DHT22;34178;50.904;11.560;2024-03-23T14:16:09;15.00;69.80
48376;DHT22;34178;50.904;11.560;2024-03-23T14:18:35;13.40;71.30
48376;DHT22;34178;50.904;11.560;2024-03-23T14:21:00;12.10;74.80
48376;DHT22;34178;50.904;11.560;2024-03-23T14:23:27;11.10;76.70
48376;DHT22;34178;50.904;11.560;2024-03-23T14:25:53;10.60;79.20
48376;DHT22;34178;50.904;11.560;2024-03-23T14:28:19;10.60;80.00
48376;DHT22;34178;50.904;11.560;2024-03-23T14:30:44;10.60;81.80
48376;DHT22;34178;50.904;11.560;2024-03-23T14:33:10;10.50;81.20
48376;DHT22;34178;50.904;11.560;2024-03-23T14:35:35;10.20;81.70
48376;DHT22;34178;50.904;11.560;2024-03-23T14:38:01;10.10;85.00
48376;DHT22;34178;50.904;11.560;2024-03-23T14:40:27;10.00;86.80
48376;DHT22;34178;50.904;11.560;2024-03-23T14:42:56;9.50;90.30
48376;DHT22;34178;50.904;11.560;2024-03-23T14:45:22;7.00;99.90
48376;DHT22;34178;50.904;11.560;2024-03-23T14:47:49;5.50;99.90
48376;DHT22;34178;50.904;11.560;2024-03-23T14:50:14;4.90;99.90
48376;DHT22;34178;50.904;11.560;2024-03-23T14:52:42;4.80;99.90
48376;DHT22;34178;50.904;11.560;2024-03-23T14:55:09;4.70;99.90
48376;DHT22;34178;50.904;11.560;2024-03-23T14:57:34;4.70;99.90
48376;DHT22;34178;50.904;11.560;2024-03-23T15:00:00;5.10;99.90
48376;DHT22;34178;50.904;11.560;2024-03-23T15:02:26;7.20;99.90
48376;DHT22;34178;50.904;11.560;2024-03-23T15:04:53;7.50;99.90
48376;DHT22;34178;50.904;11.560;2024-03-23T15:07:19;7.90;99.90
48376;DHT22;34178;50.904;11.560;2024-03-23T15:09:45;7.70;99.90
48376;DHT22;34178;50.904;11.560;2024-03-23T15:12:10;8.00;99.90
48376;DHT22;34178;50.904;11.560;2024-03-23T15:14:36;8.40;99.90
48376;DHT22;34178;50.904;11.560;2024-03-23T15:17:01;8.70;99.90
48376;DHT22;34178;50.904;11.560;2024-03-23T15:19:30;9.50;99.90
48376;DHT22;34178;50.904;11.560;2024-03-23T15:21:55;9.20;99.90
48376;DHT22;34178;50.904;11.560;2024-03-23T15:24:21;10.60;99.90
48376;DHT22;34178;50.904;11.560;2024-03-23T15:26:47;11.70;99.90
48376;DHT22;34178;50.904;11.560;2024-03-23T15:29:15;12.30;99.90
48376;DHT22;34178;50.904;11.560;2024-03-23T15:31:42;12.40;99.90
48376;DHT22;34178;50.904;11.560;2024-03-23T15:34:08;13.50;99.90
48376;DHT22;34178;50.904;11.560;2024-03-23T15:36:37;14.00;99.90
48376;DHT22;34178;50.904;11.560;2024-03-23T15:39:04;14.10;99.90
48376;DHT22;34178;50.904;11.560;2024-03-23T15:41:29;12.90;99.90
48376;DHT22;34178;50.904;11.560;2024-03-23T15:43:56;12.70;99.90
48376;DHT22;34178;50.904;11.560;2024-03-23T15:46:22;12.60;99.50
48376;DHT22;34178;50.904;11.560;2024-03-23T15:48:47;12.60;99.90
48376;DHT22;34178;50.904;11.560;2024-03-23T15:51:14;12.30;99.10
48376;DHT22;34178;50.904;11.560;2024-03-23T15:53:39;11.40;99.90
48376;DHT22;34178;50.904;11.560;2024-03-23T15:56:05;10.10;99.90
48376;DHT22;34178;50.904;11.560;2024-03-23T15:58:31;9.40;99.90
48376;DHT22;34178;50.904;11.560;2024-03-23T16:01:07;9.70;99.90
48376;DHT22;34178;50.904;11.560;2024-03-23T16:03:36;9.30;99.90
48376;DHT22;34178;50.904;11.560;2024-03-23T16:06:03;9.10;99.90
48376;DHT22;34178;50.904;11.560;2024-03-23T16:08:29;9.70;99.90
48376;DHT22;34178;50.904;11.560;2024-03-23T16:10:59;9.70;99.90
48376;DHT22;34178;50.904;11.560;2024-03-23T16:13:25;9.90;99.90
48376;DHT22;34178;50.904;11.560;2024-03-23T16:15:57;10.20;99.90
48376;DHT22;34178;50.904;11.560;2024-03-23T16:18:23;9.50;99.90
48376;DHT22;34178;50.904;11.560;2024-03-23T16:20:55;8.90;99.90
48376;DHT22;34178;50.904;11.560;2024-03-23T16:23:21;8.40;99.90
48376;DHT22;34178;50.904;11.560;2024-03-23T16:25:50;8.30;99.90